NWK2908 YPPH-YFDF
Flight info
| Callsign | NWK2908 |
|---|---|
| Flight time | 1h 37m |
| Altitude | 37000 |
| Route | AVNEX Y15 ESDEG Y60 GUVNA DCT VEPEK |
| Aircraft | A319/M-SDFGHIRWXYZ/LB1 |
Departure
| Time | 2026-04-27 03:18 |
|---|---|
| Airport | Perth International Airport (YPPH) |
Arrival
| Time | 2026-04-27 04:55 |
|---|---|
| Airport | Fortescue - Dave Forrest Aerodrome (YFDF) |
| Time | Latitude | Longitude | Altitude | Speed | Heading |
|---|---|---|---|---|---|
| 2026-04-27 02:45 | -31.93466 | 115.96149 | 68 ft | 0 kts | 302° |
| 2026-04-27 03:08 | -31.93477 | 115.96169 | 58 ft | 4 kts | 308° |
| 2026-04-27 03:08 | -31.93495 | 115.96193 | 62 ft | 4 kts | 319° |
| 2026-04-27 03:09 | -31.93517 | 115.96211 | 58 ft | 4 kts | 339° |
| 2026-04-27 03:09 | -31.93540 | 115.96214 | 65 ft | 2 kts | 29° |
| 2026-04-27 03:09 | -31.93541 | 115.96213 | 65 ft | 0 kts | 30° |
| 2026-04-27 03:13 | -31.93533 | 115.96219 | 61 ft | 5 kts | 30° |
| 2026-04-27 03:13 | -31.93500 | 115.96242 | 66 ft | 5 kts | 32° |
| 2026-04-27 03:13 | -31.93472 | 115.96262 | 63 ft | 4 kts | 32° |
| 2026-04-27 03:13 | -31.93448 | 115.96277 | 64 ft | 4 kts | 24° |
| 2026-04-27 03:14 | -31.93421 | 115.96290 | 64 ft | 6 kts | 20° |
| 2026-04-27 03:14 | -31.93360 | 115.96312 | 65 ft | 11 kts | 12° |
| 2026-04-27 03:14 | -31.93281 | 115.96329 | 64 ft | 12 kts | 8° |
| 2026-04-27 03:14 | -31.93191 | 115.96336 | 64 ft | 13 kts | 15° |
| 2026-04-27 03:15 | -31.93111 | 115.96385 | 66 ft | 14 kts | 47° |
| 2026-04-27 03:15 | -31.93045 | 115.96470 | 65 ft | 14 kts | 47° |
| 2026-04-27 03:15 | -31.92981 | 115.96553 | 65 ft | 13 kts | 47° |
| 2026-04-27 03:15 | -31.92910 | 115.96596 | 61 ft | 11 kts | 6° |
| 2026-04-27 03:16 | -31.92851 | 115.96632 | 66 ft | 9 kts | 54° |
| 2026-04-27 03:16 | -31.92847 | 115.96693 | 68 ft | 7 kts | 105° |
| 2026-04-27 03:16 | -31.92859 | 115.96740 | 66 ft | 5 kts | 107° |
| 2026-04-27 03:16 | -31.92867 | 115.96775 | 65 ft | 4 kts | 104° |
| 2026-04-27 03:17 | -31.92874 | 115.96804 | 66 ft | 4 kts | 112° |
| 2026-04-27 03:17 | -31.92938 | 115.96825 | 64 ft | 21 kts | 193° |
| 2026-04-27 03:17 | -31.93264 | 115.96729 | 66 ft | 78 kts | 194° |
| 2026-04-27 03:17 | -31.93976 | 115.96522 | 66 ft | 132 kts | 194° |
| 2026-04-27 03:18 | -31.94996 | 115.96228 | 326 ft | 156 kts | 193° |
| 2026-04-27 03:18 | -31.96058 | 115.95920 | 980 ft | 158 kts | 193° |
| 2026-04-27 03:18 | -31.97120 | 115.95610 | 1508 ft | 161 kts | 193° |
| 2026-04-27 03:18 | -31.98242 | 115.95283 | 1846 ft | 171 kts | 193° |
| 2026-04-27 03:19 | -31.99475 | 115.94925 | 2023 ft | 194 kts | 194° |
| 2026-04-27 03:19 | -32.00840 | 115.94523 | 2296 ft | 217 kts | 197° |
| 2026-04-27 03:19 | -32.02193 | 115.93613 | 2593 ft | 236 kts | 235° |
| 2026-04-27 03:19 | -32.02792 | 115.91800 | 3026 ft | 248 kts | 271° |
| 2026-04-27 03:20 | -32.02689 | 115.89759 | 3899 ft | 251 kts | 284° |
| 2026-04-27 03:20 | -32.02363 | 115.87748 | 4934 ft | 250 kts | 286° |
| 2026-04-27 03:20 | -32.01993 | 115.85750 | 5828 ft | 251 kts | 286° |
| 2026-04-27 03:20 | -32.01632 | 115.83706 | 6736 ft | 251 kts | 285° |
| 2026-04-27 03:21 | -32.01264 | 115.81713 | 7557 ft | 252 kts | 292° |
| 2026-04-27 03:21 | -32.00382 | 115.79959 | 8466 ft | 250 kts | 314° |
| 2026-04-27 03:21 | -31.98941 | 115.78818 | 9315 ft | 254 kts | 336° |
| 2026-04-27 03:21 | -31.97170 | 115.78528 | 10115 ft | 264 kts | 356° |
| 2026-04-27 03:22 | -31.95275 | 115.78642 | 10457 ft | 284 kts | 357° |
| 2026-04-27 03:22 | -31.93225 | 115.78775 | 10606 ft | 307 kts | 358° |
| 2026-04-27 03:22 | -31.91028 | 115.78924 | 10904 ft | 321 kts | 358° |
| 2026-04-27 03:22 | -31.88782 | 115.79082 | 11426 ft | 328 kts | 358° |
| 2026-04-27 03:23 | -31.86482 | 115.79244 | 12027 ft | 332 kts | 358° |
| 2026-04-27 03:23 | -31.84160 | 115.79402 | 12614 ft | 336 kts | 358° |
| 2026-04-27 03:23 | -31.81797 | 115.79561 | 13268 ft | 344 kts | 358° |
| 2026-04-27 03:23 | -31.79390 | 115.79718 | 13996 ft | 349 kts | 358° |
| 2026-04-27 03:24 | -31.76943 | 115.79877 | 14731 ft | 354 kts | 358° |
| 2026-04-27 03:24 | -31.74473 | 115.80039 | 15469 ft | 358 kts | 358° |
| 2026-04-27 03:24 | -31.71971 | 115.80204 | 16138 ft | 362 kts | 358° |
| 2026-04-27 03:24 | -31.69471 | 115.80367 | 16799 ft | 367 kts | 358° |
| 2026-04-27 03:25 | -31.66906 | 115.80529 | 17508 ft | 372 kts | 358° |
| 2026-04-27 03:25 | -31.64298 | 115.80694 | 18217 ft | 378 kts | 358° |
| 2026-04-27 03:25 | -31.61653 | 115.80864 | 18839 ft | 383 kts | 359° |
| 2026-04-27 03:25 | -31.58977 | 115.81037 | 19498 ft | 386 kts | 359° |
| 2026-04-27 03:26 | -31.56288 | 115.81211 | 20043 ft | 388 kts | 359° |
| 2026-04-27 03:26 | -31.53592 | 115.81388 | 20568 ft | 389 kts | 359° |
| 2026-04-27 03:26 | -31.50883 | 115.81564 | 21045 ft | 391 kts | 359° |
| 2026-04-27 03:26 | -31.48157 | 115.81740 | 21533 ft | 393 kts | 359° |
| 2026-04-27 03:27 | -31.45412 | 115.81917 | 22042 ft | 395 kts | 359° |
| 2026-04-27 03:27 | -31.42662 | 115.82098 | 22591 ft | 398 kts | 359° |
| 2026-04-27 03:27 | -31.39882 | 115.82279 | 23134 ft | 400 kts | 359° |
| 2026-04-27 03:27 | -31.37096 | 115.82460 | 23620 ft | 402 kts | 359° |
| 2026-04-27 03:28 | -31.34290 | 115.82642 | 23973 ft | 404 kts | 359° |
| 2026-04-27 03:28 | -31.31475 | 115.82822 | 24326 ft | 406 kts | 359° |
| 2026-04-27 03:28 | -31.28681 | 115.83000 | 24668 ft | 408 kts | 359° |
| 2026-04-27 03:28 | -31.25845 | 115.83182 | 25008 ft | 410 kts | 359° |
| 2026-04-27 03:29 | -31.22992 | 115.83366 | 25344 ft | 412 kts | 359° |
| 2026-04-27 03:29 | -31.20128 | 115.83553 | 25686 ft | 414 kts | 359° |
| 2026-04-27 03:29 | -31.17249 | 115.83741 | 26018 ft | 415 kts | 359° |
| 2026-04-27 03:29 | -31.14351 | 115.83931 | 26364 ft | 417 kts | 359° |
| 2026-04-27 03:30 | -31.11444 | 115.84119 | 26695 ft | 419 kts | 359° |
| 2026-04-27 03:30 | -31.08521 | 115.84305 | 27016 ft | 421 kts | 359° |
| 2026-04-27 03:30 | -31.05585 | 115.84492 | 27330 ft | 423 kts | 359° |
| 2026-04-27 03:30 | -31.02647 | 115.84679 | 27629 ft | 425 kts | 359° |
| 2026-04-27 03:31 | -30.99681 | 115.84868 | 27929 ft | 427 kts | 359° |
| 2026-04-27 03:31 | -30.96706 | 115.85058 | 28224 ft | 429 kts | 359° |
| 2026-04-27 03:31 | -30.93709 | 115.85249 | 28505 ft | 431 kts | 359° |
| 2026-04-27 03:31 | -30.90706 | 115.85439 | 28796 ft | 433 kts | 359° |
| 2026-04-27 03:32 | -30.87729 | 115.85628 | 29072 ft | 435 kts | 359° |
| 2026-04-27 03:32 | -30.84699 | 115.85819 | 29341 ft | 437 kts | 359° |
| 2026-04-27 03:32 | -30.81654 | 115.86009 | 29607 ft | 439 kts | 359° |
| 2026-04-27 03:32 | -30.79593 | 115.86153 | 29782 ft | 441 kts | 0° |
| 2026-04-27 03:33 | -30.75533 | 115.86530 | 30142 ft | 443 kts | 1° |
| 2026-04-27 03:33 | -30.72464 | 115.86871 | 30472 ft | 442 kts | 1° |
| 2026-04-27 03:33 | -30.69404 | 115.87225 | 30798 ft | 441 kts | 1° |
| 2026-04-27 03:33 | -30.66350 | 115.87570 | 31115 ft | 441 kts | 1° |
| 2026-04-27 03:34 | -30.63300 | 115.87901 | 31428 ft | 440 kts | 1° |
| 2026-04-27 03:34 | -30.61278 | 115.88114 | 31642 ft | 440 kts | 1° |
| 2026-04-27 03:34 | -30.58234 | 115.88429 | 31962 ft | 439 kts | 1° |
| 2026-04-27 03:34 | -30.55194 | 115.88737 | 32289 ft | 438 kts | 1° |
| 2026-04-27 03:35 | -30.52154 | 115.89044 | 32629 ft | 438 kts | 1° |
| 2026-04-27 03:35 | -30.49123 | 115.89350 | 32956 ft | 437 kts | 0° |
| 2026-04-27 03:35 | -30.46083 | 115.89659 | 33277 ft | 437 kts | 1° |
| 2026-04-27 03:35 | -30.43054 | 115.89971 | 33613 ft | 436 kts | 1° |
| 2026-04-27 03:36 | -30.40032 | 115.90286 | 33948 ft | 435 kts | 1° |
| 2026-04-27 03:36 | -30.37013 | 115.90601 | 34253 ft | 435 kts | 0° |
| 2026-04-27 03:36 | -30.33999 | 115.90915 | 34541 ft | 434 kts | 0° |
| 2026-04-27 03:36 | -30.31030 | 115.91222 | 34827 ft | 433 kts | 0° |
| 2026-04-27 03:37 | -30.28030 | 115.91526 | 35116 ft | 433 kts | 0° |
| 2026-04-27 03:37 | -30.25028 | 115.91826 | 35390 ft | 432 kts | 0° |
| 2026-04-27 03:37 | -30.22037 | 115.92128 | 35669 ft | 431 kts | 0° |
| 2026-04-27 03:37 | -30.19048 | 115.92431 | 35949 ft | 431 kts | 360° |
| 2026-04-27 03:38 | -30.16059 | 115.92738 | 36228 ft | 430 kts | 360° |
| 2026-04-27 03:38 | -30.13083 | 115.93047 | 36487 ft | 429 kts | 360° |
| 2026-04-27 03:38 | -30.10096 | 115.93357 | 36745 ft | 429 kts | 360° |
| 2026-04-27 03:38 | -30.07129 | 115.93659 | 36971 ft | 429 kts | 359° |
| 2026-04-27 03:39 | -30.04199 | 115.93957 | 37033 ft | 427 kts | 359° |
| 2026-04-27 03:39 | -29.98288 | 115.94559 | 37036 ft | 426 kts | 359° |
| 2026-04-27 03:40 | -29.92376 | 115.95160 | 37038 ft | 426 kts | 359° |
| 2026-04-27 03:40 | -29.86504 | 115.95753 | 37040 ft | 426 kts | 359° |
| 2026-04-27 03:41 | -29.80595 | 115.96348 | 37035 ft | 426 kts | 359° |
| 2026-04-27 03:41 | -29.74676 | 115.96945 | 37029 ft | 426 kts | 359° |
| 2026-04-27 03:42 | -29.68769 | 115.97544 | 37022 ft | 426 kts | 359° |
| 2026-04-27 03:42 | -29.62882 | 115.98136 | 37017 ft | 427 kts | 359° |
| 2026-04-27 03:43 | -29.56962 | 115.98735 | 37012 ft | 427 kts | 359° |
| 2026-04-27 03:43 | -29.51029 | 115.99339 | 37014 ft | 427 kts | 359° |
| 2026-04-27 03:44 | -29.45141 | 115.99935 | 37007 ft | 428 kts | 359° |
| 2026-04-27 03:44 | -29.39202 | 116.00523 | 37007 ft | 428 kts | 359° |
| 2026-04-27 03:45 | -29.33256 | 116.01117 | 37009 ft | 428 kts | 359° |
| 2026-04-27 03:45 | -29.27308 | 116.01716 | 37012 ft | 429 kts | 359° |
| 2026-04-27 03:46 | -29.21412 | 116.02498 | 37012 ft | 435 kts | 7° |
| 2026-04-27 03:46 | -29.15664 | 116.05014 | 37008 ft | 445 kts | 17° |
| 2026-04-27 03:47 | -29.10004 | 116.07890 | 37011 ft | 445 kts | 17° |
| 2026-04-27 03:47 | -29.04374 | 116.10734 | 37007 ft | 445 kts | 17° |
| 2026-04-27 03:48 | -28.98711 | 116.13603 | 37010 ft | 445 kts | 17° |
| 2026-04-27 03:48 | -28.93051 | 116.16471 | 37010 ft | 445 kts | 17° |
| 2026-04-27 03:49 | -28.87391 | 116.19326 | 37010 ft | 444 kts | 17° |
| 2026-04-27 03:49 | -28.81730 | 116.22180 | 37005 ft | 444 kts | 17° |
| 2026-04-27 03:50 | -28.76073 | 116.25029 | 37003 ft | 444 kts | 16° |
| 2026-04-27 03:50 | -28.70451 | 116.27860 | 36998 ft | 444 kts | 16° |
| 2026-04-27 03:51 | -28.64791 | 116.30710 | 36995 ft | 445 kts | 16° |
| 2026-04-27 03:51 | -28.59127 | 116.33561 | 36994 ft | 445 kts | 16° |
| 2026-04-27 03:52 | -28.53457 | 116.36407 | 36995 ft | 445 kts | 16° |
| 2026-04-27 03:52 | -28.47787 | 116.39243 | 36989 ft | 445 kts | 16° |
| 2026-04-27 03:53 | -28.42148 | 116.42057 | 36990 ft | 445 kts | 15° |
| 2026-04-27 03:53 | -28.36473 | 116.44892 | 36986 ft | 445 kts | 15° |
| 2026-04-27 03:54 | -28.30790 | 116.47741 | 36980 ft | 446 kts | 15° |
| 2026-04-27 03:54 | -28.25115 | 116.50577 | 36982 ft | 446 kts | 15° |
| 2026-04-27 03:55 | -28.19428 | 116.53406 | 36985 ft | 446 kts | 15° |
| 2026-04-27 03:55 | -28.13776 | 116.56216 | 36986 ft | 446 kts | 15° |
| 2026-04-27 03:56 | -28.08091 | 116.59044 | 36989 ft | 446 kts | 15° |
| 2026-04-27 03:56 | -28.02401 | 116.61864 | 36988 ft | 446 kts | 15° |
| 2026-04-27 03:57 | -27.96755 | 116.64657 | 36989 ft | 445 kts | 15° |
| 2026-04-27 03:57 | -27.91076 | 116.67460 | 36989 ft | 445 kts | 15° |
| 2026-04-27 03:58 | -27.85410 | 116.70262 | 36980 ft | 445 kts | 15° |
| 2026-04-27 03:58 | -27.79725 | 116.73074 | 36976 ft | 444 kts | 14° |
| 2026-04-27 03:59 | -27.74052 | 116.75873 | 36981 ft | 444 kts | 14° |
| 2026-04-27 03:59 | -27.68412 | 116.78656 | 36984 ft | 444 kts | 14° |
| 2026-04-27 04:00 | -27.62744 | 116.81454 | 36977 ft | 445 kts | 14° |
| 2026-04-27 04:00 | -27.57078 | 116.84242 | 36994 ft | 445 kts | 14° |
| 2026-04-27 04:01 | -27.51396 | 116.87025 | 36995 ft | 445 kts | 14° |
| 2026-04-27 04:01 | -27.45747 | 116.89796 | 36990 ft | 445 kts | 14° |
| 2026-04-27 04:02 | -27.40052 | 116.92593 | 36989 ft | 445 kts | 14° |
| 2026-04-27 04:02 | -27.34380 | 116.95367 | 36982 ft | 445 kts | 14° |
| 2026-04-27 04:03 | -27.28725 | 116.98134 | 36981 ft | 445 kts | 14° |
| 2026-04-27 04:03 | -27.23047 | 117.00907 | 36970 ft | 445 kts | 14° |
| 2026-04-27 04:04 | -27.17351 | 117.03678 | 36969 ft | 445 kts | 14° |
| 2026-04-27 04:04 | -27.11665 | 117.06450 | 36966 ft | 445 kts | 14° |
| 2026-04-27 04:05 | -27.06011 | 117.09200 | 36965 ft | 445 kts | 14° |
| 2026-04-27 04:05 | -27.00323 | 117.11967 | 36963 ft | 446 kts | 14° |
| 2026-04-27 04:06 | -26.94617 | 117.14740 | 36964 ft | 446 kts | 13° |
| 2026-04-27 04:06 | -26.88916 | 117.17517 | 36964 ft | 447 kts | 13° |
| 2026-04-27 04:07 | -26.80364 | 117.21666 | 36967 ft | 447 kts | 13° |
| 2026-04-27 04:07 | -26.74633 | 117.24429 | 36972 ft | 448 kts | 13° |
| 2026-04-27 04:08 | -26.68941 | 117.27171 | 36975 ft | 448 kts | 13° |
| 2026-04-27 04:08 | -26.63221 | 117.29932 | 36979 ft | 449 kts | 13° |
| 2026-04-27 04:09 | -26.57480 | 117.32703 | 36981 ft | 449 kts | 13° |
| 2026-04-27 04:09 | -26.51741 | 117.35476 | 36987 ft | 449 kts | 13° |
| 2026-04-27 04:10 | -26.46001 | 117.38241 | 36980 ft | 449 kts | 13° |
| 2026-04-27 04:10 | -26.40295 | 117.40978 | 36982 ft | 449 kts | 13° |
| 2026-04-27 04:11 | -26.34555 | 117.43730 | 36979 ft | 449 kts | 13° |
| 2026-04-27 04:11 | -26.28817 | 117.46488 | 36978 ft | 449 kts | 13° |
| 2026-04-27 04:12 | -26.23077 | 117.49244 | 36976 ft | 449 kts | 13° |
| 2026-04-27 04:12 | -26.17368 | 117.51972 | 36976 ft | 449 kts | 13° |
| 2026-04-27 04:13 | -26.11609 | 117.54677 | 36971 ft | 447 kts | 11° |
| 2026-04-27 04:13 | -26.05778 | 117.56978 | 36970 ft | 443 kts | 8° |
| 2026-04-27 04:14 | -25.99907 | 117.59086 | 36975 ft | 443 kts | 8° |
| 2026-04-27 04:14 | -25.94078 | 117.61224 | 36971 ft | 444 kts | 9° |
| 2026-04-27 04:15 | -25.88217 | 117.63446 | 36974 ft | 445 kts | 9° |
| 2026-04-27 04:15 | -25.82356 | 117.65690 | 36974 ft | 445 kts | 9° |
| 2026-04-27 04:16 | -25.76496 | 117.67926 | 36962 ft | 445 kts | 9° |
| 2026-04-27 04:16 | -25.70654 | 117.70132 | 36969 ft | 446 kts | 9° |
| 2026-04-27 04:17 | -25.64766 | 117.72356 | 36968 ft | 447 kts | 9° |
| 2026-04-27 04:17 | -25.58863 | 117.74587 | 36971 ft | 447 kts | 9° |
| 2026-04-27 04:18 | -25.52995 | 117.76802 | 36969 ft | 448 kts | 9° |
| 2026-04-27 04:18 | -25.47095 | 117.79029 | 36971 ft | 448 kts | 9° |
| 2026-04-27 04:19 | -25.41185 | 117.81254 | 36972 ft | 449 kts | 9° |
| 2026-04-27 04:19 | -25.35270 | 117.83479 | 36975 ft | 449 kts | 9° |
| 2026-04-27 04:20 | -25.29393 | 117.85701 | 36973 ft | 449 kts | 10° |
| 2026-04-27 04:20 | -25.23461 | 117.87932 | 36975 ft | 450 kts | 9° |
| 2026-04-27 04:21 | -25.17526 | 117.90149 | 36974 ft | 450 kts | 9° |
| 2026-04-27 04:21 | -25.11592 | 117.92361 | 36978 ft | 450 kts | 10° |
| 2026-04-27 04:22 | -25.05681 | 117.94578 | 36975 ft | 450 kts | 10° |
| 2026-04-27 04:22 | -24.99744 | 117.96801 | 36980 ft | 450 kts | 10° |
| 2026-04-27 04:23 | -24.93840 | 117.99013 | 36972 ft | 450 kts | 10° |
| 2026-04-27 04:23 | -24.87901 | 118.01237 | 36983 ft | 450 kts | 10° |
| 2026-04-27 04:24 | -24.81958 | 118.03452 | 36974 ft | 450 kts | 10° |
| 2026-04-27 04:24 | -24.76017 | 118.05655 | 36981 ft | 451 kts | 10° |
| 2026-04-27 04:25 | -24.70071 | 118.07862 | 36986 ft | 451 kts | 10° |
| 2026-04-27 04:25 | -24.64116 | 118.10074 | 36983 ft | 451 kts | 10° |
| 2026-04-27 04:26 | -24.58166 | 118.12290 | 36984 ft | 452 kts | 11° |
| 2026-04-27 04:26 | -24.52246 | 118.14493 | 36983 ft | 452 kts | 10° |
| 2026-04-27 04:27 | -24.46279 | 118.16704 | 36981 ft | 452 kts | 10° |
| 2026-04-27 04:27 | -24.40317 | 118.18908 | 36978 ft | 452 kts | 10° |
| 2026-04-27 04:28 | -24.34348 | 118.21108 | 36979 ft | 452 kts | 11° |
| 2026-04-27 04:28 | -24.28374 | 118.23318 | 36973 ft | 453 kts | 11° |
| 2026-04-27 04:29 | -24.23405 | 118.25153 | 36974 ft | 453 kts | 11° |
| 2026-04-27 04:29 | -24.16450 | 118.27716 | 36973 ft | 454 kts | 11° |
| 2026-04-27 04:30 | -24.10470 | 118.29917 | 36967 ft | 454 kts | 11° |
| 2026-04-27 04:30 | -24.05490 | 118.31753 | 36966 ft | 454 kts | 11° |
| 2026-04-27 04:31 | -23.99499 | 118.33958 | 36967 ft | 454 kts | 11° |
| 2026-04-27 04:31 | -23.93506 | 118.36160 | 36965 ft | 454 kts | 11° |
| 2026-04-27 04:32 | -23.87512 | 118.38358 | 36962 ft | 455 kts | 11° |
| 2026-04-27 04:32 | -23.81490 | 118.40560 | 36965 ft | 455 kts | 11° |
| 2026-04-27 04:33 | -23.75515 | 118.42748 | 36966 ft | 456 kts | 11° |
| 2026-04-27 04:33 | -23.69498 | 118.44955 | 36963 ft | 456 kts | 11° |
| 2026-04-27 04:34 | -23.63474 | 118.47151 | 36932 ft | 457 kts | 11° |
| 2026-04-27 04:34 | -23.60456 | 118.48250 | 36674 ft | 457 kts | 11° |
| 2026-04-27 04:34 | -23.57471 | 118.49340 | 36346 ft | 457 kts | 11° |
| 2026-04-27 04:35 | -23.54401 | 118.50457 | 35597 ft | 462 kts | 12° |
| 2026-04-27 04:35 | -23.51372 | 118.51558 | 34790 ft | 468 kts | 12° |
| 2026-04-27 04:35 | -23.48263 | 118.52690 | 33913 ft | 474 kts | 13° |
| 2026-04-27 04:35 | -23.45105 | 118.53841 | 32907 ft | 480 kts | 13° |
| 2026-04-27 04:36 | -23.41928 | 118.54999 | 31918 ft | 485 kts | 13° |
| 2026-04-27 04:36 | -23.38724 | 118.56168 | 31022 ft | 487 kts | 14° |
| 2026-04-27 04:36 | -23.35498 | 118.57346 | 30189 ft | 489 kts | 14° |
| 2026-04-27 04:36 | -23.32277 | 118.58524 | 29264 ft | 488 kts | 15° |
| 2026-04-27 04:37 | -23.29068 | 118.59695 | 28400 ft | 485 kts | 15° |
| 2026-04-27 04:37 | -23.25869 | 118.60858 | 27687 ft | 481 kts | 15° |
| 2026-04-27 04:37 | -23.22720 | 118.62002 | 27027 ft | 475 kts | 15° |
| 2026-04-27 04:37 | -23.19603 | 118.63133 | 26366 ft | 470 kts | 15° |
| 2026-04-27 04:38 | -23.16518 | 118.64251 | 25715 ft | 465 kts | 15° |
| 2026-04-27 04:38 | -23.13463 | 118.65360 | 25081 ft | 460 kts | 15° |
| 2026-04-27 04:38 | -23.10445 | 118.66454 | 24439 ft | 455 kts | 16° |
| 2026-04-27 04:38 | -23.07452 | 118.67538 | 23809 ft | 451 kts | 16° |
| 2026-04-27 04:39 | -23.04488 | 118.68632 | 23117 ft | 448 kts | 18° |
| 2026-04-27 04:39 | -23.01695 | 118.70106 | 22512 ft | 445 kts | 28° |
| 2026-04-27 04:39 | -22.99073 | 118.71834 | 21933 ft | 438 kts | 29° |
| 2026-04-27 04:39 | -22.96518 | 118.73513 | 21376 ft | 432 kts | 28° |
| 2026-04-27 04:40 | -22.93965 | 118.75186 | 20827 ft | 426 kts | 29° |
| 2026-04-27 04:40 | -22.91410 | 118.76861 | 20301 ft | 421 kts | 28° |
| 2026-04-27 04:40 | -22.88955 | 118.78469 | 19798 ft | 416 kts | 29° |
| 2026-04-27 04:40 | -22.86485 | 118.80085 | 19284 ft | 413 kts | 29° |
| 2026-04-27 04:41 | -22.83999 | 118.81713 | 18770 ft | 410 kts | 29° |
| 2026-04-27 04:41 | -22.81601 | 118.83284 | 18243 ft | 408 kts | 29° |
| 2026-04-27 04:41 | -22.79180 | 118.84865 | 17671 ft | 404 kts | 30° |
| 2026-04-27 04:41 | -22.76788 | 118.86428 | 17122 ft | 400 kts | 30° |
| 2026-04-27 04:42 | -22.74413 | 118.87982 | 16579 ft | 395 kts | 30° |
| 2026-04-27 04:42 | -22.72073 | 118.89516 | 16022 ft | 391 kts | 31° |
| 2026-04-27 04:42 | -22.69756 | 118.91035 | 15471 ft | 388 kts | 31° |
| 2026-04-27 04:42 | -22.67457 | 118.92537 | 14911 ft | 384 kts | 31° |
| 2026-04-27 04:43 | -22.65181 | 118.94022 | 14349 ft | 380 kts | 31° |
| 2026-04-27 04:43 | -22.62929 | 118.95490 | 13789 ft | 377 kts | 32° |
| 2026-04-27 04:43 | -22.60691 | 118.96946 | 13187 ft | 372 kts | 32° |
| 2026-04-27 04:43 | -22.58483 | 118.98382 | 12634 ft | 367 kts | 32° |
| 2026-04-27 04:44 | -22.56313 | 118.99790 | 12091 ft | 362 kts | 33° |
| 2026-04-27 04:44 | -22.54170 | 119.01182 | 11551 ft | 357 kts | 33° |
| 2026-04-27 04:44 | -22.52061 | 119.02552 | 11019 ft | 351 kts | 33° |
| 2026-04-27 04:44 | -22.49989 | 119.03902 | 10642 ft | 343 kts | 33° |
| 2026-04-27 04:45 | -22.47991 | 119.05201 | 10522 ft | 326 kts | 33° |
| 2026-04-27 04:45 | -22.46113 | 119.06424 | 10404 ft | 312 kts | 34° |
| 2026-04-27 04:45 | -22.44289 | 119.07613 | 10287 ft | 300 kts | 34° |
| 2026-04-27 04:45 | -22.42538 | 119.08756 | 10155 ft | 290 kts | 34° |
| 2026-04-27 04:46 | -22.40827 | 119.09873 | 9958 ft | 283 kts | 34° |
| 2026-04-27 04:46 | -22.39147 | 119.10972 | 9788 ft | 283 kts | 34° |
| 2026-04-27 04:46 | -22.37444 | 119.12085 | 9294 ft | 286 kts | 34° |
| 2026-04-27 04:46 | -22.35749 | 119.13186 | 8983 ft | 283 kts | 34° |
| 2026-04-27 04:47 | -22.34077 | 119.14267 | 8486 ft | 279 kts | 34° |
| 2026-04-27 04:47 | -22.32418 | 119.15343 | 7940 ft | 277 kts | 34° |
| 2026-04-27 04:47 | -22.30769 | 119.16414 | 7381 ft | 275 kts | 34° |
| 2026-04-27 04:47 | -22.29134 | 119.17475 | 6858 ft | 272 kts | 34° |
| 2026-04-27 04:48 | -22.27547 | 119.18503 | 6646 ft | 258 kts | 34° |
| 2026-04-27 04:48 | -22.26053 | 119.19468 | 6512 ft | 241 kts | 34° |
| 2026-04-27 04:48 | -22.24669 | 119.20365 | 6410 ft | 222 kts | 37° |
| 2026-04-27 04:48 | -22.23590 | 119.21432 | 6247 ft | 202 kts | 54° |
| 2026-04-27 04:49 | -22.22791 | 119.22631 | 5989 ft | 190 kts | 56° |
| 2026-04-27 04:49 | -22.22028 | 119.23767 | 5691 ft | 184 kts | 56° |
| 2026-04-27 04:49 | -22.21309 | 119.24839 | 5434 ft | 173 kts | 57° |
| 2026-04-27 04:49 | -22.20628 | 119.25853 | 5198 ft | 161 kts | 57° |
| 2026-04-27 04:50 | -22.20000 | 119.26791 | 5005 ft | 145 kts | 57° |
| 2026-04-27 04:50 | -22.19661 | 119.27777 | 4810 ft | 139 kts | 84° |
| 2026-04-27 04:50 | -22.19754 | 119.28807 | 4634 ft | 139 kts | 105° |
| 2026-04-27 04:50 | -22.20224 | 119.29716 | 4435 ft | 140 kts | 121° |
| 2026-04-27 04:51 | -22.20771 | 119.30573 | 4247 ft | 138 kts | 120° |
| 2026-04-27 04:51 | -22.21309 | 119.31425 | 4051 ft | 137 kts | 120° |
| 2026-04-27 04:51 | -22.21845 | 119.32273 | 3860 ft | 136 kts | 121° |
| 2026-04-27 04:51 | -22.22377 | 119.33121 | 3671 ft | 136 kts | 120° |
| 2026-04-27 04:52 | -22.22908 | 119.33967 | 3485 ft | 136 kts | 120° |
| 2026-04-27 04:52 | -22.23438 | 119.34809 | 3309 ft | 135 kts | 121° |
| 2026-04-27 04:52 | -22.23969 | 119.35647 | 3117 ft | 135 kts | 120° |
| 2026-04-27 04:52 | -22.24490 | 119.36474 | 2939 ft | 135 kts | 121° |
| 2026-04-27 04:53 | -22.25016 | 119.37308 | 2763 ft | 135 kts | 120° |
| 2026-04-27 04:53 | -22.25540 | 119.38138 | 2574 ft | 134 kts | 121° |
| 2026-04-27 04:53 | -22.26063 | 119.38969 | 2404 ft | 134 kts | 121° |
| 2026-04-27 04:53 | -22.26591 | 119.39802 | 2235 ft | 136 kts | 118° |
| 2026-04-27 04:54 | -22.27120 | 119.40640 | 2046 ft | 136 kts | 117° |
| 2026-04-27 04:54 | -22.27664 | 119.41505 | 1824 ft | 139 kts | 117° |
| 2026-04-27 04:54 | -22.28213 | 119.42379 | 1684 ft | 141 kts | 117° |
| 2026-04-27 04:54 | -22.28753 | 119.43250 | 1572 ft | 135 kts | 121° |
| 2026-04-27 04:55 | -22.29220 | 119.43981 | 1567 ft | 100 kts | 125° |
| 2026-04-27 04:55 | -22.29517 | 119.44453 | 1567 ft | 67 kts | 124° |
| 2026-04-27 04:55 | -22.29703 | 119.44750 | 1565 ft | 12 kts | 105° |
| 2026-04-27 04:55 | -22.29684 | 119.44752 | 1565 ft | 6 kts | 315° |
| 2026-04-27 04:56 | -22.29650 | 119.44666 | 1565 ft | 17 kts | 298° |
| 2026-04-27 04:56 | -22.29581 | 119.44550 | 1565 ft | 19 kts | 304° |
| 2026-04-27 04:56 | -22.29504 | 119.44430 | 1567 ft | 20 kts | 305° |
| 2026-04-27 04:56 | -22.29423 | 119.44306 | 1567 ft | 21 kts | 305° |
| 2026-04-27 04:57 | -22.29339 | 119.44174 | 1570 ft | 22 kts | 303° |
| 2026-04-27 04:57 | -22.29257 | 119.44033 | 1567 ft | 23 kts | 302° |
| 2026-04-27 04:57 | -22.29165 | 119.43885 | 1567 ft | 24 kts | 304° |
| 2026-04-27 04:57 | -22.29065 | 119.43734 | 1566 ft | 25 kts | 306° |
| 2026-04-27 04:58 | -22.28964 | 119.43576 | 1567 ft | 26 kts | 304° |
| 2026-04-27 04:58 | -22.28882 | 119.43447 | 1568 ft | 15 kts | 303° |
| 2026-04-27 04:58 | -22.28919 | 119.43366 | 1567 ft | 14 kts | 211° |
| 2026-04-27 04:58 | -22.28973 | 119.43314 | 1567 ft | 7 kts | 276° |
| 2026-04-27 04:59 | -22.28990 | 119.43291 | 1567 ft | 4 kts | 177° |
| 2026-04-27 04:59 | -22.28992 | 119.43291 | 1567 ft | 0 kts | 172° |